createdAt,value
2022-11-16T00:02:13.919Z,97003.06
2022-11-16T00:04:41.156Z,97008.66
2022-11-16T00:07:08.167Z,96996.72
2022-11-16T00:09:35.326Z,97000.19
2022-11-16T00:12:05.829Z,96997.22
2022-11-16T00:14:35.376Z,97000.41
2022-11-16T00:17:02.865Z,96983.50
2022-11-16T00:19:29.847Z,96993.91
2022-11-16T00:21:56.518Z,96985.81
2022-11-16T00:24:23.804Z,96984.22
2022-11-16T00:26:51.195Z,96980.25
2022-11-16T00:29:21.390Z,96982.94
2022-11-16T00:31:48.315Z,96988.22
2022-11-16T00:34:15.513Z,96989.59
2022-11-16T00:36:42.255Z,96994.09
2022-11-16T00:39:12.080Z,96996.19
2022-11-16T00:41:38.960Z,96991.06
2022-11-16T00:44:05.573Z,96984.41
2022-11-16T00:46:32.123Z,96974.38
2022-11-16T00:48:58.695Z,96979.16
2022-11-16T00:51:25.273Z,96977.28
2022-11-16T00:53:51.857Z,96968.34
2022-11-16T00:56:18.353Z,96964.31
2022-11-16T00:58:44.888Z,96962.66
2022-11-16T01:01:14.337Z,96970.38
2022-11-16T01:03:41.032Z,96961.53
2022-11-16T01:06:09.953Z,96956.06
2022-11-16T01:08:38.638Z,96960.66
2022-11-16T01:11:24.780Z,96957.88
2022-11-16T01:13:51.699Z,96955.06
2022-11-16T01:16:20.477Z,96966.59
2022-11-16T01:18:55.116Z,96961.66
2022-11-16T01:21:22.866Z,96959.06
2022-11-16T01:23:49.978Z,96951.63
2022-11-16T01:26:17.132Z,96950.50
2022-11-16T01:28:44.070Z,96950.94
2022-11-16T01:31:11.493Z,96950.75
2022-11-16T01:33:38.277Z,96948.63
2022-11-16T01:36:14.285Z,96946.53
2022-11-16T01:38:45.674Z,96944.06
2022-11-16T01:41:19.067Z,96950.56
2022-11-16T01:43:59.427Z,96946.75
2022-11-16T01:46:27.610Z,96938.25
2022-11-16T01:49:05.661Z,96942.72
2022-11-16T01:51:33.489Z,96949.53
2022-11-16T01:54:02.669Z,96933.81
2022-11-16T01:56:32.996Z,96940.41
2022-11-16T01:58:59.725Z,96932.38
2022-11-16T02:01:26.301Z,96938.81
2022-11-16T02:03:52.838Z,96939.50
2022-11-16T02:06:28.353Z,96943.66
2022-11-16T02:09:40.893Z,96936.97
2022-11-16T02:12:31.549Z,96931.59
2022-11-16T02:15:24.094Z,96931.16
2022-11-16T02:18:21.489Z,96930.59
2022-11-16T02:21:00.122Z,96928.47
2022-11-16T02:23:35.648Z,96922.34
2022-11-16T02:26:24.058Z,96918.63
2022-11-16T02:29:15.083Z,96920.56
2022-11-16T02:31:49.861Z,96924.88
2022-11-16T02:34:18.003Z,96913.72
2022-11-16T02:36:47.458Z,96907.47
2022-11-16T02:39:19.214Z,96916.00
2022-11-16T02:41:48.230Z,96902.91
2022-11-16T02:44:28.724Z,96900.00
2022-11-16T02:46:59.814Z,96897.66
2022-11-16T02:49:29.600Z,96890.81
2022-11-16T02:51:57.627Z,96898.97
2022-11-16T02:54:25.044Z,96899.88
2022-11-16T02:56:54.174Z,96903.00
2022-11-16T02:59:22.587Z,96915.75
2022-11-16T03:02:00.560Z,96914.16
2022-11-16T03:04:33.937Z,96912.56
2022-11-16T03:07:03.811Z,96913.06
2022-11-16T03:09:34.156Z,96915.16
2022-11-16T03:12:05.075Z,96919.78
2022-11-16T03:14:34.306Z,96914.34
2022-11-16T03:17:02.616Z,96893.59
2022-11-16T03:19:55.077Z,96906.69
2022-11-16T03:22:30.976Z,96898.66
2022-11-16T03:24:57.891Z,96892.56
2022-11-16T03:27:45.999Z,96891.09
2022-11-16T03:30:23.895Z,96885.53
2022-11-16T03:33:05.786Z,96887.19
2022-11-16T03:35:47.960Z,96891.31
2022-11-16T03:38:16.136Z,96883.50
2022-11-16T03:40:46.080Z,96882.25
2022-11-16T03:43:14.332Z,96877.91
2022-11-16T03:45:41.621Z,96853.66
2022-11-16T03:48:08.338Z,96864.97
2022-11-16T03:50:34.825Z,96865.19
2022-11-16T03:53:01.347Z,96872.56
2022-11-16T03:55:28.066Z,96864.88
2022-11-16T03:57:54.620Z,96858.41
2022-11-16T04:00:21.230Z,96860.28
2022-11-16T04:02:47.795Z,96856.28
2022-11-16T04:05:33.351Z,96855.94
2022-11-16T04:08:18.240Z,96851.69
2022-11-16T04:11:03.708Z,96846.66
2022-11-16T04:13:51.235Z,96838.97
2022-11-16T04:16:35.993Z,96844.53
2022-11-16T04:19:20.870Z,96839.97
2022-11-16T04:22:14.387Z,96834.28
2022-11-16T04:24:46.260Z,96835.28
2022-11-16T04:27:33.986Z,96833.59
2022-11-16T04:30:02.546Z,96835.50
2022-11-16T04:32:48.154Z,96826.78
2022-11-16T04:35:32.913Z,96827.78
2022-11-16T04:37:59.806Z,96822.41
2022-11-16T04:40:29.558Z,96817.81
2022-11-16T04:42:58.342Z,96818.94
2022-11-16T04:45:45.391Z,96827.66
2022-11-16T04:48:12.653Z,96831.66
2022-11-16T04:50:39.779Z,96829.22
2022-11-16T04:53:07.641Z,96827.00
2022-11-16T04:55:34.320Z,96824.97
2022-11-16T04:58:02.011Z,96823.41
2022-11-16T05:00:28.881Z,96810.44
2022-11-16T05:03:00.775Z,96821.72
2022-11-16T05:05:28.047Z,96824.19
2022-11-16T05:07:54.649Z,96818.16
2022-11-16T05:10:21.386Z,96818.03
2022-11-16T05:12:47.918Z,96807.50
2022-11-16T05:15:14.489Z,96810.66
2022-11-16T05:17:41.011Z,96815.03
2022-11-16T05:20:26.674Z,96821.63
2022-11-16T05:22:57.822Z,96809.31
2022-11-16T05:25:24.442Z,96821.75
2022-11-16T05:27:50.969Z,96819.16
2022-11-16T05:30:17.603Z,96808.69
2022-11-16T05:32:44.459Z,96820.31
2022-11-16T05:35:11.033Z,96820.09
2022-11-16T05:37:37.542Z,96815.59
2022-11-16T05:40:04.557Z,96816.25
2022-11-16T05:42:31.079Z,96811.91
2022-11-16T05:44:57.706Z,96817.84
2022-11-16T05:47:24.217Z,96814.59
2022-11-16T05:49:51.333Z,96805.34
2022-11-16T05:52:17.836Z,96808.66
2022-11-16T05:54:44.501Z,96816.94
2022-11-16T05:57:11.083Z,96816.16
2022-11-16T05:59:37.660Z,96827.44
2022-11-16T06:02:04.851Z,96826.22
2022-11-16T06:04:32.511Z,96815.03
2022-11-16T06:06:59.136Z,96823.31
2022-11-16T06:09:25.657Z,96822.28
2022-11-16T06:11:52.159Z,96829.22
2022-11-16T06:14:18.779Z,96819.41
2022-11-16T06:16:45.268Z,96824.41
2022-11-16T06:19:11.799Z,96823.06
2022-11-16T06:21:38.383Z,96808.53
2022-11-16T06:24:09.087Z,96809.03
2022-11-16T06:26:36.983Z,96811.59
2022-11-16T06:29:04.074Z,96800.84
2022-11-16T06:31:30.663Z,96804.84
2022-11-16T06:33:57.199Z,96801.47
2022-11-16T06:36:23.758Z,96805.03
2022-11-16T06:38:50.970Z,96809.50
2022-11-16T06:41:17.711Z,96807.47
2022-11-16T06:43:44.322Z,96813.38
2022-11-16T06:46:10.850Z,96812.16
2022-11-16T06:48:37.704Z,96812.94
2022-11-16T06:51:04.577Z,96814.03
2022-11-16T06:56:16.407Z,96806.31
2022-11-16T06:58:43.195Z,96804.16
2022-11-16T07:01:11.523Z,96796.03
2022-11-16T07:03:38.414Z,96808.19
2022-11-16T07:06:09.632Z,96807.94
2022-11-16T07:08:36.843Z,96798.81
2022-11-16T07:11:06.279Z,96805.84
2022-11-16T07:13:33.723Z,96801.00
2022-11-16T07:16:00.868Z,96797.72
2022-11-16T07:18:27.290Z,96806.38
2022-11-16T07:20:53.789Z,96799.72
2022-11-16T07:23:20.353Z,96800.69
2022-11-16T07:25:47.307Z,96804.59
2022-11-16T07:28:13.815Z,96801.81
2022-11-16T07:30:40.369Z,96795.03
2022-11-16T07:33:06.863Z,96803.47
2022-11-16T07:35:33.334Z,96798.19
2022-11-16T07:38:00.466Z,96800.84
2022-11-16T07:40:26.958Z,96797.69
2022-11-16T07:42:53.481Z,96797.22
2022-11-16T07:45:19.963Z,96793.84
2022-11-16T07:47:47.980Z,96794.66
2022-11-16T07:50:14.493Z,96791.22
2022-11-16T07:52:40.971Z,96791.09
2022-11-16T07:55:07.826Z,96789.53
2022-11-16T07:57:37.396Z,96779.88
2022-11-16T08:00:05.492Z,96781.47
2022-11-16T08:02:32.058Z,96775.56
2022-11-16T08:04:58.604Z,96772.97
2022-11-16T08:07:25.241Z,96771.44
2022-11-16T08:09:51.906Z,96763.66
2022-11-16T08:12:18.488Z,96767.28
2022-11-16T08:14:45.045Z,96761.38
2022-11-16T08:17:11.577Z,96769.81
2022-11-16T08:19:39.429Z,96765.34
2022-11-16T08:22:06.131Z,96768.66
2022-11-16T08:24:32.696Z,96757.16
2022-11-16T08:26:59.250Z,96759.63
2022-11-16T08:29:26.758Z,96755.28
2022-11-16T08:31:54.321Z,96742.06
2022-11-16T08:34:21.420Z,96746.56
2022-11-16T08:36:48.201Z,96736.56
2022-11-16T08:39:14.744Z,96733.53
2022-11-16T08:41:42.272Z,96743.63
2022-11-16T08:44:08.830Z,96734.53
2022-11-16T08:46:35.636Z,96730.00
2022-11-16T08:49:02.248Z,96730.75
2022-11-16T08:54:12.539Z,96719.31
2022-11-16T08:56:39.125Z,96707.50
2022-11-16T08:59:05.752Z,96700.47
2022-11-16T09:01:32.993Z,96691.56
2022-11-16T09:04:00.484Z,96699.28
2022-11-16T09:06:27.657Z,96702.25
2022-11-16T09:08:55.130Z,96703.56
2022-11-16T09:11:23.593Z,96690.13
2022-11-16T09:13:52.664Z,96691.81
2022-11-16T09:16:21.061Z,96698.00
2022-11-16T09:18:49.563Z,96707.47
2022-11-16T09:21:21.139Z,96709.34
2022-11-16T09:23:49.132Z,96702.91
2022-11-16T09:26:18.916Z,96684.00
2022-11-16T09:28:45.411Z,96673.50
2022-11-16T09:31:11.915Z,96677.47
2022-11-16T09:33:38.552Z,96677.69
2022-11-16T09:36:07.253Z,96664.38
2022-11-16T09:42:03.985Z,96663.19
2022-11-16T09:44:44.872Z,96661.25
2022-11-16T09:47:34.941Z,96653.19
2022-11-16T09:50:04.786Z,96653.66
2022-11-16T09:52:42.750Z,96647.84
2022-11-16T09:55:38.408Z,96643.50
2022-11-16T09:58:31.825Z,96626.19
2022-11-16T10:01:22.511Z,96620.53
2022-11-16T10:03:54.007Z,96614.91
2022-11-16T10:06:35.842Z,96613.94
2022-11-16T10:09:02.432Z,96606.56
2022-11-16T10:11:28.891Z,96612.50
2022-11-16T10:14:06.125Z,96610.03
2022-11-16T10:16:49.718Z,96602.44
2022-11-16T10:19:28.049Z,96596.81
2022-11-16T10:22:03.538Z,96593.13
2022-11-16T10:24:35.920Z,96590.41
2022-11-16T10:27:22.020Z,96590.22
2022-11-16T10:29:51.914Z,96587.69
2022-11-16T10:32:28.896Z,96586.69
2022-11-16T10:35:07.404Z,96582.22
2022-11-16T10:37:38.855Z,96574.16
2022-11-16T10:40:25.614Z,96573.28
2022-11-16T10:43:10.323Z,96567.88
2022-11-16T10:45:57.945Z,96563.22
2022-11-16T10:48:37.101Z,96562.84
2022-11-16T10:51:05.134Z,96559.31
2022-11-16T10:53:40.625Z,96553.97
2022-11-16T10:56:13.137Z,96543.28
2022-11-16T10:58:50.209Z,96538.91
2022-11-16T11:01:27.644Z,96529.19
2022-11-16T11:03:54.279Z,96535.53
2022-11-16T11:06:25.282Z,96529.34
2022-11-16T11:08:51.873Z,96524.66
2022-11-16T11:11:41.770Z,96519.31
2022-11-16T11:14:15.339Z,96518.06
2022-11-16T11:16:42.216Z,96519.88
2022-11-16T11:19:28.498Z,96508.13
2022-11-16T11:22:01.124Z,96494.13
2022-11-16T11:24:44.064Z,96476.94
2022-11-16T11:27:12.057Z,96493.00
2022-11-16T11:29:42.604Z,96488.47
2022-11-16T11:32:23.555Z,96481.88
2022-11-16T11:34:56.032Z,96474.63
2022-11-16T11:37:28.732Z,96470.66
2022-11-16T11:40:24.830Z,96469.72
2022-11-16T11:43:03.128Z,96466.22
2022-11-16T11:45:42.193Z,96464.22
2022-11-16T11:48:14.490Z,96460.28
2022-11-16T11:50:56.095Z,96458.72
2022-11-16T11:53:36.102Z,96454.94
2022-11-16T11:56:03.178Z,96451.38
2022-11-16T11:58:32.426Z,96448.19
2022-11-16T12:01:25.549Z,96453.16
2022-11-16T12:04:07.178Z,96444.00
2022-11-16T12:07:07.608Z,96439.19
2022-11-16T12:09:52.445Z,96436.91
2022-11-16T12:12:46.520Z,96425.97
2022-11-16T12:15:26.665Z,96410.81
2022-11-16T12:18:03.241Z,96424.22
2022-11-16T12:20:49.042Z,96412.25
2022-11-16T12:23:27.651Z,96403.66
2022-11-16T12:26:17.480Z,96400.59
2022-11-16T12:29:03.336Z,96392.09
2022-11-16T12:31:38.802Z,96398.53
2022-11-16T12:34:25.008Z,96390.34
2022-11-16T12:37:29.064Z,96389.53
2022-11-16T12:40:16.849Z,96386.19
2022-11-16T12:43:34.681Z,96388.25
2022-11-16T12:46:11.797Z,96385.97
2022-11-16T12:48:59.148Z,96379.53
2022-11-16T12:51:34.580Z,96374.47
2022-11-16T12:54:04.093Z,96367.50
2022-11-16T12:56:48.945Z,96374.47
2022-11-16T12:59:47.731Z,96387.78
2022-11-16T13:02:23.640Z,96378.81
2022-11-16T13:04:58.435Z,96373.69
2022-11-16T13:07:46.916Z,96375.22
2022-11-16T13:10:21.540Z,96370.59
2022-11-16T13:12:55.873Z,96375.22
2022-11-16T13:15:37.578Z,96368.31
2022-11-16T13:18:08.131Z,96367.00
2022-11-16T13:20:59.162Z,96365.47
2022-11-16T13:23:31.791Z,96370.88
2022-11-16T13:26:10.502Z,96362.91
2022-11-16T13:28:49.466Z,96360.44
2022-11-16T13:31:35.746Z,96359.41
2022-11-16T13:34:07.822Z,96361.25
2022-11-16T13:36:37.272Z,96348.44
2022-11-16T13:39:06.395Z,96346.16
2022-11-16T13:41:38.677Z,96349.75
2022-11-16T13:44:13.691Z,96349.50
2022-11-16T13:46:55.736Z,96353.84
2022-11-16T13:49:33.622Z,96356.38
2022-11-16T13:52:17.198Z,96359.94
2022-11-16T13:54:55.407Z,96359.69
2022-11-16T13:57:25.389Z,96362.78
2022-11-16T14:00:01.142Z,96359.91
2022-11-16T14:02:41.646Z,96364.25
2022-11-16T14:05:36.096Z,96357.56
2022-11-16T14:08:22.520Z,96344.94
2022-11-16T14:10:49.023Z,96351.13
2022-11-16T14:13:46.981Z,96335.22
2022-11-16T14:16:19.528Z,96337.25
2022-11-16T14:18:48.470Z,96343.88
2022-11-16T14:21:45.867Z,96336.44
2022-11-16T14:24:12.402Z,96342.88
2022-11-16T14:27:06.642Z,96322.84
2022-11-16T14:29:57.872Z,96322.78
2022-11-16T14:32:28.419Z,96330.75
2022-11-16T14:34:58.652Z,96322.06
2022-11-16T14:37:25.100Z,96321.31
2022-11-16T14:39:58.838Z,96325.41
2022-11-16T14:42:38.032Z,96312.28
2022-11-16T14:45:25.410Z,96316.69
2022-11-16T14:47:56.989Z,96314.91
2022-11-16T14:50:24.863Z,96322.84
2022-11-16T14:52:55.005Z,96318.00
2022-11-16T14:55:24.956Z,96317.75
2022-11-16T14:58:17.980Z,96310.28
2022-11-16T15:00:57.113Z,96304.94
2022-11-16T15:03:26.841Z,96299.78
2022-11-16T15:05:59.126Z,96291.53
2022-11-16T15:08:33.250Z,96301.28
2022-11-16T15:11:00.526Z,96302.84
2022-11-16T15:13:27.379Z,96295.94
2022-11-16T15:16:29.407Z,96301.81
2022-11-16T15:19:01.265Z,96300.28
2022-11-16T15:21:29.174Z,96296.41
2022-11-16T15:26:43.192Z,96294.91
2022-11-16T15:29:16.711Z,96292.06
2022-11-16T15:31:44.219Z,96305.91
2022-11-16T15:34:17.052Z,96293.84
2022-11-16T15:36:44.160Z,96300.47
2022-11-16T15:39:18.716Z,96294.56
2022-11-16T15:41:46.208Z,96303.28
2022-11-16T15:44:17.305Z,96306.84
2022-11-16T15:46:47.337Z,96298.88
2022-11-16T15:49:38.322Z,96298.66
2022-11-16T15:52:05.734Z,96290.94
2022-11-16T15:54:55.559Z,96304.53
2022-11-16T15:57:24.027Z,96308.09
2022-11-16T15:59:56.797Z,96298.63
2022-11-16T16:02:30.306Z,96304.78
2022-11-16T16:04:57.208Z,96298.63
2022-11-16T16:07:40.967Z,96291.94
2022-11-16T16:10:19.723Z,96294.56
2022-11-16T16:12:55.451Z,96297.09
2022-11-16T16:15:33.704Z,96302.78
2022-11-16T16:18:02.250Z,96300.47
2022-11-16T16:20:30.980Z,96291.72
2022-11-16T16:23:13.531Z,96301.97
2022-11-16T16:25:40.071Z,96307.88
2022-11-16T16:28:06.759Z,96308.41
2022-11-16T16:30:34.843Z,96308.13
2022-11-16T16:33:02.251Z,96299.13
2022-11-16T16:35:29.008Z,96292.72
2022-11-16T16:38:00.977Z,96301.19
2022-11-16T16:40:28.875Z,96310.41
2022-11-16T16:42:56.236Z,96309.88
2022-11-16T16:45:43.424Z,96307.09
2022-11-16T16:48:11.751Z,96307.34
2022-11-16T16:50:38.763Z,96307.34
2022-11-16T16:53:05.600Z,96312.44
2022-11-16T16:55:37.065Z,96306.75
2022-11-16T16:58:04.707Z,96304.97
2022-11-16T17:00:31.239Z,96301.34
2022-11-16T17:02:58.530Z,96308.03
2022-11-16T17:05:26.342Z,96304.44
2022-11-16T17:07:56.318Z,96306.69
2022-11-16T17:10:23.218Z,96308.84
2022-11-16T17:12:52.862Z,96307.94
2022-11-16T17:15:19.733Z,96309.59
2022-11-16T17:17:46.351Z,96300.72
2022-11-16T17:20:13.373Z,96291.44
2022-11-16T17:22:41.817Z,96298.94
2022-11-16T17:25:09.267Z,96295.50
2022-11-16T17:27:35.644Z,96297.19
2022-11-16T17:30:02.211Z,96293.56
2022-11-16T17:32:29.908Z,96292.22
2022-11-16T17:34:56.574Z,96286.16
2022-11-16T17:37:23.076Z,96296.34
2022-11-16T17:39:49.617Z,96293.81
2022-11-16T17:42:16.114Z,96283.00
2022-11-16T17:44:42.613Z,96291.16
2022-11-16T17:47:09.227Z,96291.34
2022-11-16T17:49:35.761Z,96291.84
2022-11-16T17:52:02.351Z,96293.13
2022-11-16T17:54:28.881Z,96287.19
2022-11-16T17:56:55.415Z,96284.09
2022-11-16T17:59:26.445Z,96277.06
2022-11-16T18:01:55.680Z,96277.28
2022-11-16T18:04:22.193Z,96271.09
2022-11-16T18:06:48.720Z,96265.25
2022-11-16T18:09:15.254Z,96264.13
2022-11-16T18:11:41.794Z,96267.78
2022-11-16T18:14:10.495Z,96260.03
2022-11-16T18:16:37.286Z,96262.56
2022-11-16T18:19:06.295Z,96261.03
2022-11-16T18:21:39.010Z,96255.53
2022-11-16T18:24:05.843Z,96254.66
2022-11-16T18:26:32.397Z,96251.56
2022-11-16T18:28:59.036Z,96251.56
2022-11-16T18:31:25.663Z,96246.78
2022-11-16T18:33:52.928Z,96250.25
2022-11-16T18:36:20.993Z,96250.25
2022-11-16T18:38:47.880Z,96233.78
2022-11-16T18:41:14.374Z,96243.91
2022-11-16T18:43:54.690Z,96243.03
2022-11-16T18:46:24.178Z,96246.13
2022-11-16T18:48:51.377Z,96236.91
2022-11-16T18:51:19.276Z,96237.31
2022-11-16T18:53:46.073Z,96248.56
2022-11-16T18:56:12.947Z,96238.44
2022-11-16T18:58:55.118Z,96240.59
2022-11-16T19:01:24.309Z,96238.69
2022-11-16T19:03:52.240Z,96237.50
2022-11-16T19:06:19.882Z,96236.56
2022-11-16T19:08:55.045Z,96243.41
2022-11-16T19:11:22.821Z,96237.72
2022-11-16T19:13:53.383Z,96239.47
2022-11-16T19:16:19.996Z,96240.16
2022-11-16T19:18:46.505Z,96237.63
2022-11-16T19:21:14.987Z,96242.41
2022-11-16T19:23:43.768Z,96242.13
2022-11-16T19:26:12.930Z,96243.25
2022-11-16T19:28:41.485Z,96234.53
2022-11-16T19:31:10.650Z,96245.22
2022-11-16T19:33:38.190Z,96247.16
2022-11-16T19:36:12.525Z,96243.31
2022-11-16T19:38:39.822Z,96255.75
2022-11-16T19:41:07.830Z,96257.81
2022-11-16T19:43:34.929Z,96259.22
2022-11-16T19:46:06.538Z,96261.25
2022-11-16T19:48:33.709Z,96255.69
2022-11-16T19:51:15.076Z,96248.94
2022-11-16T19:53:41.793Z,96253.53
2022-11-16T19:56:11.166Z,96247.53
2022-11-16T19:58:38.499Z,96251.06
2022-11-16T20:01:06.753Z,96228.97
2022-11-16T20:03:33.943Z,96234.59
2022-11-16T20:06:12.058Z,96235.59
2022-11-16T20:08:39.723Z,96226.38
2022-11-16T20:11:17.389Z,96220.81
2022-11-16T20:13:44.032Z,96232.06
2022-11-16T20:16:12.318Z,96223.63
2022-11-16T20:18:40.548Z,96232.75
2022-11-16T20:21:10.489Z,96224.03
2022-11-16T20:23:37.632Z,96223.34
2022-11-16T20:26:09.930Z,96221.66
2022-11-16T20:28:38.542Z,96219.41
2022-11-16T20:31:10.633Z,96222.00
2022-11-16T20:33:37.566Z,96218.28
2022-11-16T20:36:07.098Z,96204.47
2022-11-16T20:38:34.647Z,96217.72
2022-11-16T20:41:08.849Z,96212.38
2022-11-16T20:43:35.963Z,96209.34
2022-11-16T20:46:02.915Z,96209.88
2022-11-16T20:48:29.442Z,96213.63
2022-11-16T20:50:55.974Z,96208.97
2022-11-16T20:53:22.639Z,96206.97
2022-11-16T20:55:50.100Z,96210.06
2022-11-16T20:58:22.455Z,96213.16
2022-11-16T21:00:49.932Z,96219.34
2022-11-16T21:03:16.975Z,96200.38
2022-11-16T21:05:44.956Z,96196.06
2022-11-16T21:08:12.485Z,96190.44
2022-11-16T21:10:39.773Z,96201.25
2022-11-16T21:13:29.613Z,96184.59
2022-11-16T21:15:57.977Z,96181.50
2022-11-16T21:18:30.394Z,96179.00
2022-11-16T21:21:02.102Z,96179.50
2022-11-16T21:23:30.330Z,96182.03
2022-11-16T21:26:05.639Z,96176.13
2022-11-16T21:28:32.591Z,96183.56
2022-11-16T21:31:26.178Z,96182.59
2022-11-16T21:33:53.659Z,96178.94
2022-11-16T21:36:21.406Z,96188.72
2022-11-16T21:38:47.949Z,96194.34
2022-11-16T21:41:16.063Z,96192.31
2022-11-16T21:43:42.635Z,96196.41
2022-11-16T21:46:17.434Z,96191.53
2022-11-16T21:48:44.718Z,96187.94
2022-11-16T21:51:16.377Z,96187.28
2022-11-16T21:53:43.320Z,96198.53
2022-11-16T21:56:15.166Z,96193.84
2022-11-16T21:58:42.418Z,96192.31
2022-11-16T22:01:10.637Z,96194.28
2022-11-16T22:03:38.109Z,96192.53
2022-11-16T22:06:25.889Z,96177.13
2022-11-16T22:08:52.835Z,96188.66
2022-11-16T22:11:22.126Z,96197.38
2022-11-16T22:13:49.920Z,96187.41
2022-11-16T22:16:18.327Z,96186.34
2022-11-16T22:18:44.995Z,96189.19
2022-11-16T22:21:11.915Z,96191.75
2022-11-16T22:23:38.732Z,96183.56
2022-11-16T22:26:08.155Z,96179.22
2022-11-16T22:28:36.330Z,96182.03
2022-11-16T22:31:08.112Z,96178.50
2022-11-16T22:33:35.247Z,96180.03
2022-11-16T22:36:02.177Z,96181.63
2022-11-16T22:38:28.873Z,96182.09
2022-11-16T22:40:56.867Z,96173.88
2022-11-16T22:43:26.519Z,96168.00
2022-11-16T22:45:57.978Z,96175.22
2022-11-16T22:48:29.236Z,96175.44
2022-11-16T22:51:22.035Z,96177.53
2022-11-16T22:53:53.161Z,96169.09
2022-11-16T22:56:20.046Z,96148.53
2022-11-16T22:58:46.591Z,96149.78
2022-11-16T23:01:13.136Z,96156.19
2022-11-16T23:03:40.006Z,96158.81
2022-11-16T23:06:07.121Z,96157.31
2022-11-16T23:08:35.163Z,96156.84
2022-11-16T23:11:21.919Z,96151.22
2022-11-16T23:14:07.930Z,96142.75
2022-11-16T23:16:34.797Z,96129.34
2022-11-16T23:19:01.331Z,96130.94
2022-11-16T23:21:46.415Z,96128.53
2022-11-16T23:24:33.337Z,96120.63
2022-11-16T23:27:21.865Z,96122.91
2022-11-16T23:29:48.569Z,96114.47
2022-11-16T23:32:15.292Z,96121.41
2022-11-16T23:34:41.807Z,96123.97
2022-11-16T23:37:08.315Z,96122.91
2022-11-16T23:39:34.869Z,96112.69
2022-11-16T23:42:20.071Z,96116.56
2022-11-16T23:44:46.842Z,96113.97
2022-11-16T23:47:13.332Z,96116.56
2022-11-16T23:49:39.846Z,96119.59
2022-11-16T23:52:06.385Z,96114.06
2022-11-16T23:54:33.002Z,96114.38
2022-11-16T23:56:59.523Z,96104.31
2022-11-16T23:59:26.089Z,96109.50
